sensor_id;sensor_type;location;lat;lon;timestamp;pressure;altitude;pressure_sealevel;temperature;humidity
68859;BME280;55864;49.238;8.092;2024-01-30T00:00:47;100752.88;;;5.71;93.83
68859;BME280;55864;49.238;8.092;2024-01-30T00:02:47;100747.19;;;5.80;92.55
68859;BME280;55864;49.238;8.092;2024-01-30T00:04:48;100747.13;;;5.64;93.37
68859;BME280;55864;49.238;8.092;2024-01-30T00:06:48;100745.28;;;5.84;93.18
68859;BME280;55864;49.238;8.092;2024-01-30T00:08:49;100738.41;;;5.81;92.16
68859;BME280;55864;49.238;8.092;2024-01-30T00:10:51;100736.97;;;5.93;91.74
68859;BME280;55864;49.238;8.092;2024-01-30T00:12:51;100739.16;;;6.00;91.15
68859;BME280;55864;49.238;8.092;2024-01-30T00:14:52;100744.88;;;5.91;90.47
68859;BME280;55864;49.238;8.092;2024-01-30T00:16:52;100745.56;;;5.78;91.47
68859;BME280;55864;49.238;8.092;2024-01-30T00:18:53;100746.53;;;5.59;92.32
68859;BME280;55864;49.238;8.092;2024-01-30T00:20:53;100751.69;;;5.44;94.88
68859;BME280;55864;49.238;8.092;2024-01-30T00:22:54;100750.13;;;5.57;93.79
68859;BME280;55864;49.238;8.092;2024-01-30T00:24:55;100755.44;;;5.55;93.08
68859;BME280;55864;49.238;8.092;2024-01-30T00:26:56;100752.25;;;4.99;96.96
68859;BME280;55864;49.238;8.092;2024-01-30T00:28:57;100744.84;;;5.41;97.24
68859;BME280;55864;49.238;8.092;2024-01-30T00:30:58;100759.31;;;5.64;94.22
68859;BME280;55864;49.238;8.092;2024-01-30T00:32:58;100753.97;;;5.50;94.57
68859;BME280;55864;49.238;8.092;2024-01-30T00:34:59;100754.56;;;5.55;95.10
68859;BME280;55864;49.238;8.092;2024-01-30T00:36:59;100756.00;;;5.45;95.90
68859;BME280;55864;49.238;8.092;2024-01-30T00:39:00;100749.75;;;5.47;93.60
68859;BME280;55864;49.238;8.092;2024-01-30T00:41:00;100746.09;;;5.34;97.09
68859;BME280;55864;49.238;8.092;2024-01-30T00:43:02;100749.06;;;5.61;95.03
68859;BME280;55864;49.238;8.092;2024-01-30T00:45:04;100747.84;;;5.51;94.21
68859;BME280;55864;49.238;8.092;2024-01-30T00:47:04;100753.88;;;5.68;94.59
68859;BME280;55864;49.238;8.092;2024-01-30T00:49:05;100754.88;;;5.66;94.86
68859;BME280;55864;49.238;8.092;2024-01-30T00:51:05;100750.78;;;5.78;93.21
68859;BME280;55864;49.238;8.092;2024-01-30T00:53:06;100752.88;;;5.88;93.12
68859;BME280;55864;49.238;8.092;2024-01-30T00:55:07;100752.06;;;5.19;97.18
68859;BME280;55864;49.238;8.092;2024-01-30T00:57:07;100747.56;;;5.23;97.49
68859;BME280;55864;49.238;8.092;2024-01-30T00:59:11;100751.38;;;4.99;100.00
68859;BME280;55864;49.238;8.092;2024-01-30T01:01:11;100743.19;;;5.06;100.00
68859;BME280;55864;49.238;8.092;2024-01-30T01:03:12;100747.09;;;5.32;99.44
68859;BME280;55864;49.238;8.092;2024-01-30T01:05:12;100749.84;;;5.46;97.20
68859;BME280;55864;49.238;8.092;2024-01-30T01:07:13;100745.09;;;5.54;98.29
68859;BME280;55864;49.238;8.092;2024-01-30T01:09:13;100749.31;;;5.89;94.85
68859;BME280;55864;49.238;8.092;2024-01-30T01:11:14;100739.06;;;5.86;93.01
68859;BME280;55864;49.238;8.092;2024-01-30T01:13:14;100743.97;;;5.92;93.70
68859;BME280;55864;49.238;8.092;2024-01-30T01:15:16;100742.72;;;5.99;92.71
68859;BME280;55864;49.238;8.092;2024-01-30T01:17:17;100734.94;;;5.65;92.32
68859;BME280;55864;49.238;8.092;2024-01-30T01:19:17;100739.84;;;5.88;91.74
68859;BME280;55864;49.238;8.092;2024-01-30T01:21:18;100737.22;;;5.88;92.11
68859;BME280;55864;49.238;8.092;2024-01-30T01:23:18;100730.50;;;5.67;93.58
68859;BME280;55864;49.238;8.092;2024-01-30T01:25:19;100733.94;;;5.85;92.01
68859;BME280;55864;49.238;8.092;2024-01-30T01:27:20;100739.66;;;5.91;91.55
68859;BME280;55864;49.238;8.092;2024-01-30T01:29:20;100738.56;;;5.95;91.42
68859;BME280;55864;49.238;8.092;2024-01-30T01:31:22;100734.53;;;5.90;91.25
68859;BME280;55864;49.238;8.092;2024-01-30T01:33:22;100744.44;;;5.66;92.58
68859;BME280;55864;49.238;8.092;2024-01-30T01:35:23;100743.84;;;5.61;93.24
68859;BME280;55864;49.238;8.092;2024-01-30T01:37:24;100733.38;;;5.78;93.23
68859;BME280;55864;49.238;8.092;2024-01-30T01:39:25;100745.47;;;5.96;91.72
68859;BME280;55864;49.238;8.092;2024-01-30T01:41:29;100739.28;;;6.14;90.13
68859;BME280;55864;49.238;8.092;2024-01-30T01:43:30;100742.63;;;6.01;91.02
68859;BME280;55864;49.238;8.092;2024-01-30T01:45:31;100734.06;;;6.14;90.43
68859;BME280;55864;49.238;8.092;2024-01-30T01:47:33;100728.34;;;6.23;89.27
68859;BME280;55864;49.238;8.092;2024-01-30T01:49:34;100740.19;;;6.29;89.07
68859;BME280;55864;49.238;8.092;2024-01-30T01:51:35;100730.19;;;6.37;88.20
68859;BME280;55864;49.238;8.092;2024-01-30T01:53:36;100732.03;;;6.35;88.08
68859;BME280;55864;49.238;8.092;2024-01-30T01:55:37;100728.34;;;6.23;87.87
68859;BME280;55864;49.238;8.092;2024-01-30T01:57:38;100736.41;;;6.03;88.61
68859;BME280;55864;49.238;8.092;2024-01-30T01:59:38;100732.38;;;5.98;89.09
68859;BME280;55864;49.238;8.092;2024-01-30T02:01:39;100733.59;;;5.91;88.86
68859;BME280;55864;49.238;8.092;2024-01-30T02:03:41;100736.84;;;5.79;88.73
68859;BME280;55864;49.238;8.092;2024-01-30T02:05:42;100733.19;;;5.65;88.59
68859;BME280;55864;49.238;8.092;2024-01-30T02:07:43;100736.81;;;5.46;88.07
68859;BME280;55864;49.238;8.092;2024-01-30T02:09:44;100735.59;;;5.36;88.66
68859;BME280;55864;49.238;8.092;2024-01-30T02:11:44;100731.31;;;5.35;86.88
68859;BME280;55864;49.238;8.092;2024-01-30T02:13:45;100740.22;;;5.31;86.63
68859;BME280;55864;49.238;8.092;2024-01-30T02:15:49;100732.09;;;5.37;87.92
68859;BME280;55864;49.238;8.092;2024-01-30T02:17:49;100733.25;;;5.31;87.97
68859;BME280;55864;49.238;8.092;2024-01-30T02:19:51;100730.00;;;5.09;88.19
68859;BME280;55864;49.238;8.092;2024-01-30T02:21:54;100734.09;;;5.15;88.72
68859;BME280;55864;49.238;8.092;2024-01-30T02:23:54;100733.31;;;4.96;88.29
68859;BME280;55864;49.238;8.092;2024-01-30T02:25:55;100723.72;;;4.96;89.00
68859;BME280;55864;49.238;8.092;2024-01-30T02:27:56;100730.94;;;4.91;89.62
68859;BME280;55864;49.238;8.092;2024-01-30T02:29:56;100728.25;;;4.93;90.42
68859;BME280;55864;49.238;8.092;2024-01-30T02:31:57;100736.72;;;4.79;89.65
68859;BME280;55864;49.238;8.092;2024-01-30T02:33:57;100726.78;;;4.87;89.25
68859;BME280;55864;49.238;8.092;2024-01-30T02:35:58;100730.69;;;4.61;89.08
68859;BME280;55864;49.238;8.092;2024-01-30T02:38:00;100719.78;;;4.53;90.86
68859;BME280;55864;49.238;8.092;2024-01-30T02:40:00;100723.22;;;4.90;90.99
68859;BME280;55864;49.238;8.092;2024-01-30T02:42:01;100719.91;;;4.86;90.63
68859;BME280;55864;49.238;8.092;2024-01-30T02:44:01;100723.47;;;4.31;94.22
68859;BME280;55864;49.238;8.092;2024-01-30T02:46:02;100728.63;;;4.14;94.29
68859;BME280;55864;49.238;8.092;2024-01-30T02:48:03;100726.38;;;3.67;97.87
68859;BME280;55864;49.238;8.092;2024-01-30T02:50:05;100739.22;;;3.52;100.00
68859;BME280;55864;49.238;8.092;2024-01-30T02:52:05;100734.25;;;3.66;100.00
68859;BME280;55864;49.238;8.092;2024-01-30T02:54:07;100733.38;;;3.47;100.00
68859;BME280;55864;49.238;8.092;2024-01-30T02:56:08;100741.19;;;3.27;100.00
68859;BME280;55864;49.238;8.092;2024-01-30T02:58:08;100739.34;;;3.09;100.00
68859;BME280;55864;49.238;8.092;2024-01-30T03:00:10;100741.69;;;2.95;100.00
68859;BME280;55864;49.238;8.092;2024-01-30T03:02:10;100745.84;;;3.19;100.00
68859;BME280;55864;49.238;8.092;2024-01-30T03:04:11;100748.06;;;3.08;100.00
68859;BME280;55864;49.238;8.092;2024-01-30T03:06:11;100741.22;;;2.63;100.00
68859;BME280;55864;49.238;8.092;2024-01-30T03:08:12;100746.59;;;2.37;100.00
68859;BME280;55864;49.238;8.092;2024-01-30T03:10:14;100750.25;;;2.32;100.00
68859;BME280;55864;49.238;8.092;2024-01-30T03:12:14;100749.97;;;2.39;100.00
68859;BME280;55864;49.238;8.092;2024-01-30T03:14:15;100737.63;;;2.46;100.00
68859;BME280;55864;49.238;8.092;2024-01-30T03:16:15;100757.09;;;2.34;100.00
68859;BME280;55864;49.238;8.092;2024-01-30T03:18:16;100749.59;;;2.48;100.00
68859;BME280;55864;49.238;8.092;2024-01-30T03:20:16;100747.59;;;2.33;100.00
68859;BME280;55864;49.238;8.092;2024-01-30T03:22:17;100754.78;;;2.27;100.00
68859;BME280;55864;49.238;8.092;2024-01-30T03:24:17;100748.41;;;2.57;100.00
68859;BME280;55864;49.238;8.092;2024-01-30T03:26:19;100751.59;;;2.42;100.00
68859;BME280;55864;49.238;8.092;2024-01-30T03:28:20;100755.56;;;2.29;100.00
68859;BME280;55864;49.238;8.092;2024-01-30T03:30:20;100747.06;;;2.47;100.00
68859;BME280;55864;49.238;8.092;2024-01-30T03:32:21;100751.91;;;2.34;100.00
68859;BME280;55864;49.238;8.092;2024-01-30T03:34:22;100750.13;;;2.13;100.00
68859;BME280;55864;49.238;8.092;2024-01-30T03:36:22;100747.63;;;2.10;100.00
68859;BME280;55864;49.238;8.092;2024-01-30T03:38:23;100746.22;;;2.25;100.00
68859;BME280;55864;49.238;8.092;2024-01-30T03:40:23;100743.41;;;2.52;100.00
68859;BME280;55864;49.238;8.092;2024-01-30T03:42:25;100742.38;;;2.56;100.00
68859;BME280;55864;49.238;8.092;2024-01-30T03:44:26;100747.50;;;2.79;100.00
68859;BME280;55864;49.238;8.092;2024-01-30T03:46:26;100745.22;;;3.14;100.00
68859;BME280;55864;49.238;8.092;2024-01-30T03:48:27;100749.09;;;3.04;100.00
68859;BME280;55864;49.238;8.092;2024-01-30T03:50:27;100748.28;;;2.60;100.00
68859;BME280;55864;49.238;8.092;2024-01-30T03:52:28;100744.78;;;2.61;100.00
68859;BME280;55864;49.238;8.092;2024-01-30T03:54:28;100741.13;;;2.66;100.00
68859;BME280;55864;49.238;8.092;2024-01-30T03:56:29;100745.38;;;2.67;100.00
68859;BME280;55864;49.238;8.092;2024-01-30T03:58:31;100749.63;;;2.90;100.00
68859;BME280;55864;49.238;8.092;2024-01-30T04:00:31;100743.16;;;2.80;100.00
68859;BME280;55864;49.238;8.092;2024-01-30T04:02:32;100757.81;;;2.59;100.00
68859;BME280;55864;49.238;8.092;2024-01-30T04:04:32;100741.59;;;2.54;100.00
68859;BME280;55864;49.238;8.092;2024-01-30T04:06:33;100742.25;;;2.38;100.00
68859;BME280;55864;49.238;8.092;2024-01-30T04:08:33;100748.94;;;2.43;100.00
68859;BME280;55864;49.238;8.092;2024-01-30T04:10:34;100753.72;;;2.09;100.00
68859;BME280;55864;49.238;8.092;2024-01-30T04:12:34;100749.06;;;1.96;100.00
68859;BME280;55864;49.238;8.092;2024-01-30T04:14:38;100746.66;;;1.91;100.00
68859;BME280;55864;49.238;8.092;2024-01-30T04:16:38;100755.03;;;1.98;100.00
68859;BME280;55864;49.238;8.092;2024-01-30T04:18:39;100756.19;;;2.12;100.00
68859;BME280;55864;49.238;8.092;2024-01-30T04:20:39;100750.91;;;2.15;100.00
68859;BME280;55864;49.238;8.092;2024-01-30T04:22:40;100747.81;;;2.29;100.00
68859;BME280;55864;49.238;8.092;2024-01-30T04:24:40;100751.06;;;2.55;100.00
68859;BME280;55864;49.238;8.092;2024-01-30T04:26:41;100744.72;;;2.62;100.00
68859;BME280;55864;49.238;8.092;2024-01-30T04:28:41;100750.97;;;2.78;100.00
68859;BME280;55864;49.238;8.092;2024-01-30T04:30:44;100751.66;;;2.83;100.00
68859;BME280;55864;49.238;8.092;2024-01-30T04:32:44;100736.09;;;3.04;100.00
68859;BME280;55864;49.238;8.092;2024-01-30T04:34:45;100754.03;;;3.10;100.00
68859;BME280;55864;49.238;8.092;2024-01-30T04:36:45;100742.50;;;3.37;100.00
68859;BME280;55864;49.238;8.092;2024-01-30T04:38:46;100740.53;;;3.42;100.00
68859;BME280;55864;49.238;8.092;2024-01-30T04:40:46;100740.56;;;3.60;100.00
68859;BME280;55864;49.238;8.092;2024-01-30T04:42:47;100737.22;;;3.77;100.00
68859;BME280;55864;49.238;8.092;2024-01-30T04:44:47;100742.56;;;3.74;100.00
68859;BME280;55864;49.238;8.092;2024-01-30T04:46:49;100737.38;;;4.11;100.00
68859;BME280;55864;49.238;8.092;2024-01-30T04:48:50;100745.41;;;4.25;100.00
68859;BME280;55864;49.238;8.092;2024-01-30T04:50:50;100745.81;;;3.98;100.00
68859;BME280;55864;49.238;8.092;2024-01-30T04:52:51;100745.63;;;4.02;100.00
68859;BME280;55864;49.238;8.092;2024-01-30T04:54:51;100741.69;;;4.31;99.94
68859;BME280;55864;49.238;8.092;2024-01-30T04:56:52;100735.00;;;4.25;98.57
68859;BME280;55864;49.238;8.092;2024-01-30T04:58:52;100756.50;;;4.10;98.73
68859;BME280;55864;49.238;8.092;2024-01-30T05:00:53;100743.28;;;4.15;96.21
68859;BME280;55864;49.238;8.092;2024-01-30T05:02:56;100752.53;;;3.83;97.52
68859;BME280;55864;49.238;8.092;2024-01-30T05:04:56;100750.75;;;4.04;98.20
68859;BME280;55864;49.238;8.092;2024-01-30T05:06:57;100753.22;;;4.07;95.50
68859;BME280;55864;49.238;8.092;2024-01-30T05:08:57;100751.81;;;4.18;94.08
68859;BME280;55864;49.238;8.092;2024-01-30T05:11:00;100745.53;;;4.22;93.59
68859;BME280;55864;49.238;8.092;2024-01-30T05:13:00;100749.97;;;4.20;92.64
68859;BME280;55864;49.238;8.092;2024-01-30T05:15:01;100757.13;;;4.15;92.06
68859;BME280;55864;49.238;8.092;2024-01-30T05:17:01;100755.59;;;4.11;92.44
68859;BME280;55864;49.238;8.092;2024-01-30T05:19:03;100753.13;;;4.08;92.33
68859;BME280;55864;49.238;8.092;2024-01-30T05:21:05;100754.97;;;4.06;92.82
68859;BME280;55864;49.238;8.092;2024-01-30T05:23:06;100758.31;;;3.90;92.16
68859;BME280;55864;49.238;8.092;2024-01-30T05:25:07;100757.22;;;3.95;92.59
68859;BME280;55864;49.238;8.092;2024-01-30T05:27:08;100753.84;;;3.93;93.14
68859;BME280;55864;49.238;8.092;2024-01-30T05:29:08;100763.56;;;3.88;93.23
68859;BME280;55864;49.238;8.092;2024-01-30T05:31:09;100759.16;;;3.51;95.33
68859;BME280;55864;49.238;8.092;2024-01-30T05:33:09;100751.56;;;3.86;94.07
68859;BME280;55864;49.238;8.092;2024-01-30T05:35:11;100757.31;;;3.92;92.96
68859;BME280;55864;49.238;8.092;2024-01-30T05:37:12;100763.78;;;3.83;93.27
68859;BME280;55864;49.238;8.092;2024-01-30T05:39:13;100762.75;;;3.88;91.81
68859;BME280;55864;49.238;8.092;2024-01-30T05:41:13;100764.84;;;3.79;91.70
68859;BME280;55864;49.238;8.092;2024-01-30T05:43:14;100763.47;;;3.71;93.38
68859;BME280;55864;49.238;8.092;2024-01-30T05:45:14;100767.69;;;3.73;91.92
68859;BME280;55864;49.238;8.092;2024-01-30T05:47:15;100770.00;;;3.61;91.83
68859;BME280;55864;49.238;8.092;2024-01-30T05:49:15;100777.13;;;3.76;91.70
68859;BME280;55864;49.238;8.092;2024-01-30T05:51:17;100780.56;;;3.56;92.11
68859;BME280;55864;49.238;8.092;2024-01-30T05:53:18;100778.22;;;3.70;90.81
68859;BME280;55864;49.238;8.092;2024-01-30T05:55:18;100776.50;;;3.51;91.56
68859;BME280;55864;49.238;8.092;2024-01-30T05:57:19;100779.34;;;3.65;91.20
68859;BME280;55864;49.238;8.092;2024-01-30T05:59:19;100778.69;;;3.60;90.86
68859;BME280;55864;49.238;8.092;2024-01-30T06:01:20;100780.38;;;3.61;91.68
68859;BME280;55864;49.238;8.092;2024-01-30T06:03:20;100780.31;;;3.62;91.69
68859;BME280;55864;49.238;8.092;2024-01-30T06:05:21;100774.03;;;3.48;92.21
68859;BME280;55864;49.238;8.092;2024-01-30T06:07:23;100782.00;;;3.43;92.36
68859;BME280;55864;49.238;8.092;2024-01-30T06:09:23;100782.31;;;3.56;92.52
68859;BME280;55864;49.238;8.092;2024-01-30T06:11:24;100776.22;;;3.57;91.94
68859;BME280;55864;49.238;8.092;2024-01-30T06:13:24;100771.75;;;3.60;92.29
68859;BME280;55864;49.238;8.092;2024-01-30T06:15:25;100766.47;;;3.62;93.08
68859;BME280;55864;49.238;8.092;2024-01-30T06:17:26;100771.94;;;3.76;93.00
68859;BME280;55864;49.238;8.092;2024-01-30T06:19:26;100763.38;;;3.93;93.55
68859;BME280;55864;49.238;8.092;2024-01-30T06:21:27;100759.53;;;4.01;95.07
68859;BME280;55864;49.238;8.092;2024-01-30T06:23:29;100758.34;;;4.27;94.49
68859;BME280;55864;49.238;8.092;2024-01-30T06:25:29;100757.63;;;4.42;93.72
68859;BME280;55864;49.238;8.092;2024-01-30T06:27:30;100765.56;;;4.57;93.52
68859;BME280;55864;49.238;8.092;2024-01-30T06:29:30;100763.28;;;4.68;93.42
68859;BME280;55864;49.238;8.092;2024-01-30T06:31:31;100761.56;;;4.86;93.37
68859;BME280;55864;49.238;8.092;2024-01-30T06:33:31;100763.03;;;4.92;92.06
68859;BME280;55864;49.238;8.092;2024-01-30T06:35:32;100770.06;;;4.90;92.50
68859;BME280;55864;49.238;8.092;2024-01-30T06:37:32;100765.66;;;5.09;92.17
68859;BME280;55864;49.238;8.092;2024-01-30T06:39:34;100762.28;;;5.24;91.54
68859;BME280;55864;49.238;8.092;2024-01-30T06:41:35;100761.22;;;5.28;90.84
68859;BME280;55864;49.238;8.092;2024-01-30T06:43:35;100763.56;;;5.32;90.61
68859;BME280;55864;49.238;8.092;2024-01-30T06:45:36;100762.50;;;5.36;90.43
68859;BME280;55864;49.238;8.092;2024-01-30T06:47:36;100760.88;;;5.51;90.65
68859;BME280;55864;49.238;8.092;2024-01-30T06:49:37;100763.72;;;5.46;90.64
68859;BME280;55864;49.238;8.092;2024-01-30T06:51:37;100764.56;;;5.47;90.42
68859;BME280;55864;49.238;8.092;2024-01-30T06:53:38;100765.19;;;5.35;90.16
68859;BME280;55864;49.238;8.092;2024-01-30T06:55:40;100762.41;;;5.38;90.76
68859;BME280;55864;49.238;8.092;2024-01-30T06:57:41;100767.50;;;5.41;90.54
68859;BME280;55864;49.238;8.092;2024-01-30T06:59:41;100769.16;;;5.42;91.05
68859;BME280;55864;49.238;8.092;2024-01-30T07:01:42;100767.53;;;5.39;92.73
68859;BME280;55864;49.238;8.092;2024-01-30T07:03:43;100765.84;;;5.55;91.11
68859;BME280;55864;49.238;8.092;2024-01-30T07:05:43;100766.72;;;5.71;90.66
68859;BME280;55864;49.238;8.092;2024-01-30T07:07:44;100760.31;;;5.79;90.04
68859;BME280;55864;49.238;8.092;2024-01-30T07:09:44;100766.81;;;5.87;89.26
68859;BME280;55864;49.238;8.092;2024-01-30T07:11:46;100766.81;;;5.87;88.58
68859;BME280;55864;49.238;8.092;2024-01-30T07:13:47;100767.59;;;5.89;88.54
68859;BME280;55864;49.238;8.092;2024-01-30T07:15:47;100764.66;;;5.95;88.70
68859;BME280;55864;49.238;8.092;2024-01-30T07:17:48;100774.63;;;5.87;90.09
68859;BME280;55864;49.238;8.092;2024-01-30T07:19:48;100770.53;;;5.99;88.96
68859;BME280;55864;49.238;8.092;2024-01-30T07:21:49;100772.56;;;5.94;89.51
68859;BME280;55864;49.238;8.092;2024-01-30T07:23:49;100774.19;;;5.79;89.95
68859;BME280;55864;49.238;8.092;2024-01-30T07:25:50;100781.91;;;5.81;90.28
68859;BME280;55864;49.238;8.092;2024-01-30T07:27:52;100766.81;;;5.37;91.29
68859;BME280;55864;49.238;8.092;2024-01-30T07:29:52;100771.00;;;5.40;91.66
68859;BME280;55864;49.238;8.092;2024-01-30T07:31:53;100780.78;;;5.69;89.15
68859;BME280;55864;49.238;8.092;2024-01-30T07:33:53;100772.00;;;5.54;89.31
68859;BME280;55864;49.238;8.092;2024-01-30T07:35:54;100774.81;;;5.67;87.99
68859;BME280;55864;49.238;8.092;2024-01-30T07:37:54;100781.06;;;5.80;88.48
68859;BME280;55864;49.238;8.092;2024-01-30T07:39:56;100774.25;;;5.78;88.20
68859;BME280;55864;49.238;8.092;2024-01-30T07:41:57;100782.53;;;5.68;88.94
68859;BME280;55864;49.238;8.092;2024-01-30T07:43:59;100778.56;;;5.79;90.11
68859;BME280;55864;49.238;8.092;2024-01-30T07:45:59;100782.00;;;5.79;89.90
68859;BME280;55864;49.238;8.092;2024-01-30T07:48:00;100784.16;;;5.88;89.63
68859;BME280;55864;49.238;8.092;2024-01-30T07:50:01;100779.91;;;6.03;89.73
68859;BME280;55864;49.238;8.092;2024-01-30T07:52:01;100775.34;;;6.06;90.12
68859;BME280;55864;49.238;8.092;2024-01-30T07:54:02;100781.25;;;6.10;90.18
68859;BME280;55864;49.238;8.092;2024-01-30T07:56:03;100783.22;;;6.37;88.64
68859;BME280;55864;49.238;8.092;2024-01-30T07:58:04;100783.38;;;6.34;89.27
68859;BME280;55864;49.238;8.092;2024-01-30T08:00:06;100788.59;;;6.34;89.71
68859;BME280;55864;49.238;8.092;2024-01-30T08:02:07;100784.50;;;6.46;89.68
68859;BME280;55864;49.238;8.092;2024-01-30T08:04:08;100786.44;;;6.42;89.86
68859;BME280;55864;49.238;8.092;2024-01-30T08:06:09;100787.88;;;6.63;90.84
68859;BME280;55864;49.238;8.092;2024-01-30T08:08:10;100788.63;;;6.65;89.21
68859;BME280;55864;49.238;8.092;2024-01-30T08:10:12;100797.03;;;6.71;90.78
68859;BME280;55864;49.238;8.092;2024-01-30T08:12:12;100796.94;;;6.72;89.63
68859;BME280;55864;49.238;8.092;2024-01-30T08:14:13;100793.00;;;6.81;88.44
68859;BME280;55864;49.238;8.092;2024-01-30T08:16:14;100796.69;;;6.92;88.38
68859;BME280;55864;49.238;8.092;2024-01-30T08:18:15;100796.44;;;6.81;87.87
68859;BME280;55864;49.238;8.092;2024-01-30T08:20:16;100798.03;;;6.84;87.73
68859;BME280;55864;49.238;8.092;2024-01-30T08:22:16;100799.22;;;6.78;87.68
68859;BME280;55864;49.238;8.092;2024-01-30T08:24:17;100805.63;;;6.57;88.60
68859;BME280;55864;49.238;8.092;2024-01-30T08:26:17;100804.94;;;6.22;89.80
68859;BME280;55864;49.238;8.092;2024-01-30T08:28:18;100802.84;;;5.96;90.95
68859;BME280;55864;49.238;8.092;2024-01-30T08:30:19;100804.41;;;5.83;91.32
68859;BME280;55864;49.238;8.092;2024-01-30T08:32:21;100806.38;;;5.78;91.45
68859;BME280;55864;49.238;8.092;2024-01-30T08:34:21;100812.06;;;5.86;92.19
68859;BME280;55864;49.238;8.092;2024-01-30T08:36:22;100808.19;;;6.10;91.54
68859;BME280;55864;49.238;8.092;2024-01-30T08:38:22;100811.78;;;6.08;91.26
68859;BME280;55864;49.238;8.092;2024-01-30T08:40:22;100808.63;;;6.18;91.42
68859;BME280;55864;49.238;8.092;2024-01-30T08:42:23;100814.91;;;6.47;91.82
68859;BME280;55864;49.238;8.092;2024-01-30T08:44:23;100801.78;;;6.64;91.25
68859;BME280;55864;49.238;8.092;2024-01-30T08:46:24;100806.53;;;6.87;90.14
68859;BME280;55864;49.238;8.092;2024-01-30T08:48:26;100808.91;;;6.76;89.27
68859;BME280;55864;49.238;8.092;2024-01-30T08:50:26;100809.00;;;6.90;89.69
68859;BME280;55864;49.238;8.092;2024-01-30T08:52:27;100808.91;;;6.92;88.37
68859;BME280;55864;49.238;8.092;2024-01-30T08:54:27;100808.22;;;6.73;89.70
68859;BME280;55864;49.238;8.092;2024-01-30T08:56:28;100806.06;;;6.81;89.70
68859;BME280;55864;49.238;8.092;2024-01-30T08:58:28;100808.47;;;6.99;88.90
68859;BME280;55864;49.238;8.092;2024-01-30T09:00:29;100816.59;;;6.63;89.32
68859;BME280;55864;49.238;8.092;2024-01-30T09:02:29;100811.34;;;6.48;89.99
68859;BME280;55864;49.238;8.092;2024-01-30T09:04:31;100813.16;;;6.30;90.47
68859;BME280;55864;49.238;8.092;2024-01-30T09:08:47;100806.97;;;6.33;91.09
68859;BME280;55864;49.238;8.092;2024-01-30T09:10:48;100802.84;;;6.44;89.70
68859;BME280;55864;49.238;8.092;2024-01-30T09:12:48;100813.22;;;6.61;88.69
68859;BME280;55864;49.238;8.092;2024-01-30T09:14:49;100803.50;;;6.95;87.82
68859;BME280;55864;49.238;8.092;2024-01-30T09:16:49;100807.91;;;6.79;87.43
68859;BME280;55864;49.238;8.092;2024-01-30T09:18:50;100811.41;;;6.78;87.82
68859;BME280;55864;49.238;8.092;2024-01-30T09:20:52;100805.19;;;6.80;88.38
68859;BME280;55864;49.238;8.092;2024-01-30T09:22:52;100806.81;;;6.98;87.84
68859;BME280;55864;49.238;8.092;2024-01-30T09:24:52;100809.66;;;6.94;87.85
68859;BME280;55864;49.238;8.092;2024-01-30T09:26:53;100810.41;;;6.96;88.08
68859;BME280;55864;49.238;8.092;2024-01-30T09:28:53;100817.88;;;7.17;87.36
68859;BME280;55864;49.238;8.092;2024-01-30T09:30:54;100813.47;;;7.33;86.23
68859;BME280;55864;49.238;8.092;2024-01-30T09:32:54;100812.44;;;7.36;85.74
68859;BME280;55864;49.238;8.092;2024-01-30T09:34:55;100813.53;;;7.61;85.54
68859;BME280;55864;49.238;8.092;2024-01-30T09:36:57;100806.25;;;7.67;85.00
68859;BME280;55864;49.238;8.092;2024-01-30T09:38:58;100812.72;;;7.89;84.58
68859;BME280;55864;49.238;8.092;2024-01-30T09:41:03;100810.88;;;8.19;83.35
68859;BME280;55864;49.238;8.092;2024-01-30T09:43:06;100816.19;;;8.18;83.35
68859;BME280;55864;49.238;8.092;2024-01-30T09:45:07;100806.56;;;8.18;83.48
68859;BME280;55864;49.238;8.092;2024-01-30T09:47:08;100812.22;;;8.26;82.05
68859;BME280;55864;49.238;8.092;2024-01-30T09:49:09;100819.22;;;8.26;82.84
68859;BME280;55864;49.238;8.092;2024-01-30T09:51:11;100816.19;;;8.18;83.54
68859;BME280;55864;49.238;8.092;2024-01-30T09:53:13;100823.22;;;8.17;83.28
68859;BME280;55864;49.238;8.092;2024-01-30T09:55:14;100826.13;;;8.41;83.78
68859;BME280;55864;49.238;8.092;2024-01-30T09:57:15;100825.09;;;8.29;83.21
68859;BME280;55864;49.238;8.092;2024-01-30T09:59:15;100834.47;;;8.33;82.37
68859;BME280;55864;49.238;8.092;2024-01-30T10:01:17;100834.28;;;8.36;82.49
68859;BME280;55864;49.238;8.092;2024-01-30T10:03:17;100837.44;;;8.27;82.54
68859;BME280;55864;49.238;8.092;2024-01-30T10:05:19;100831.72;;;8.35;82.05
68859;BME280;55864;49.238;8.092;2024-01-30T10:07:19;100838.28;;;8.42;81.33
68859;BME280;55864;49.238;8.092;2024-01-30T10:09:21;100840.16;;;8.40;81.02
68859;BME280;55864;49.238;8.092;2024-01-30T10:11:22;100836.31;;;8.45;82.06
68859;BME280;55864;49.238;8.092;2024-01-30T10:13:22;100832.75;;;8.61;82.87
68859;BME280;55864;49.238;8.092;2024-01-30T10:15:24;100840.31;;;8.65;82.21
68859;BME280;55864;49.238;8.092;2024-01-30T10:17:26;100838.94;;;8.17;84.51
68859;BME280;55864;49.238;8.092;2024-01-30T10:19:26;100836.47;;;8.14;85.07
68859;BME280;55864;49.238;8.092;2024-01-30T10:21:27;100831.09;;;8.31;84.09
68859;BME280;55864;49.238;8.092;2024-01-30T10:23:29;100835.72;;;8.12;84.53
68859;BME280;55864;49.238;8.092;2024-01-30T10:25:35;100837.13;;;8.60;83.46
68859;BME280;55864;49.238;8.092;2024-01-30T10:27:35;100843.63;;;8.26;84.60
68859;BME280;55864;49.238;8.092;2024-01-30T10:29:37;100835.09;;;8.37;85.37
68859;BME280;55864;49.238;8.092;2024-01-30T10:31:37;100833.72;;;8.31;85.53
68859;BME280;55864;49.238;8.092;2024-01-30T10:33:38;100835.59;;;8.43;85.25
68859;BME280;55864;49.238;8.092;2024-01-30T10:35:38;100834.41;;;8.62;83.36
68859;BME280;55864;49.238;8.092;2024-01-30T10:37:39;100822.81;;;8.80;81.14
68859;BME280;55864;49.238;8.092;2024-01-30T10:39:39;100820.69;;;8.99;80.70